Strona główna
METAR-TAF:

METAR-TAF

Lotnisko :

Port lotniczy Barnstable

Hyannis, Massachusetts, Stany Zjednoczone

Szerokość geograficzna: 41-40-19N, Długość geograficzna: 070-16-11W, wysokość: 15 m

Aktualna obserwacja pogody

Raport powstał 27 minut temu, godzina 22:56 UTC
Cisza
Temperatura -2°C
Wilgotność 39%
Ciśnienie 1031 hPa
Widzialność: 16.1 km
bezchmurnie

METAR: KHYA 192256Z 00000KT 10SM CLR M02/M14 A3046 RMK AO2 SLP315 T10171139

czas: 18:23 (23:23 UTC)

Prognoza

Raport powstał 2 godziny i 21 minut temu, godzina 21:02 UTC
Prognoza ważna od 19 godzina 21 UTC do 20 godzina 18 UTC
Wiatr 5 kt od północny zachód
Widzialność: 10 km
Mało chmury na wysokości 25000 ft
Od 20 godzina 1200 UTC
Wiatr 7 kt od północno-północny zachód
Widzialność: 10 km
Rozproszone chmury na wysokości 20000 ft
Od 20 godzina 1700 UTC
Wiatr 4 kt od północno-północny zachód
Widzialność: 10 km
Przerywane chmury na wysokości 15000 ft

TAF: KHYA 192102Z 1921/2018 32005KT P6SM FEW250 FM201200 34007KT P6SM SCT200 FM201700 33004KT P6SM BKN150

Obserwacja i prognoza pogody dla ponad 4000 lotnisk (raport METAR i TAF).

Dostępne stacje oznaczono żółtymi i czerwonymi punktami na mapie.

Najedź kursorem aby zobaczyć nazwę stacji.

Kliknij aby zobaczyć obserwacje i prognozy pogody.

Aby zmienić mapę: kliknij na zielony przycisk z czarnym krzyżykiem, aby powiększyć; na zielony przycisk z myślnikiem, aby pomniejszyć; na zielone strzałki, aby przejść do map sąsiednich.


METAR-TAF: